首页
METAR-TAF:

METAR-TAF

机场 :

法兰克福机场

法兰克福, 德国

纬度: 50-03N, 经度: 008-36E, 海拔: 111米

当前天气观测

该预报发布于10分钟前的07:20 UTC
风速5节,风向北转东北,在东北之间变化
温度 15°C
湿度 88%
气压 1007 hPa
能见度10公里或以上
1500米以下无云,无积雨云

METAR: EDDF 150720Z 03005KT 350V050 CAVOK 15/13 Q1007 NOSIG

时间: 09:30 (07:30 UTC)

预报

该预报发布于2小时和30分钟前的05:00 UTC
预报有效从15日的 06点(UTC)到 16日的 12点(UTC)
风速4节,风向东转东北
能见度10公里或以上
1500米以下无云,无积雨云
成为
从 15日的 11点(UTC)到 15日的 13点(UTC)
风速8节,风向西转西南
短暂存在
从 15日的 15点(UTC)到 15日的 18点(UTC)
能見度: 4000
多云层高于2000英尺, 积雨云.
阵雨
成为
从 15日的 18点(UTC)到 15日的 20点(UTC)
多云层高于2000英尺
短暂存在
从 15日的 18点(UTC)到 16日的 02点(UTC)
短暂存在
从 16日的 08点(UTC)到 16日的 12点(UTC)
散云层高于2000英尺

TAF: EDDF 150500Z 1506/1612 07004KT CAVOK BECMG 1511/1513 24008KT TEMPO 1515/1518 4000 SHRA BKN020CB BECMG 1518/1520 BKN020 TEMPO 1518/1602 RA TEMPO 1608/1612 SCT020

超过4000个机场的气象观测和天气预报(METAR&TAF报告)。

可查询的气象台以黄色和红色小点在地图上表示。

将鼠标移到小点上方,可查看气象台名称。

然后点击查看天气观测和预报。

如需切换地图:点击带黑十字的绿色按钮放大地图;点击带横线的绿色按钮缩小地图;或者点击绿色箭头查看邻近地区的地图。


METAR-TAF: